sensor_id;sensor_type;location;lat;lon;timestamp;P1;durP1;ratioP1;P2;durP2;ratioP2
10687;SDS011;5392;42.688;23.298;2023-01-10T00:00:44;30.50;;;14.43;;
10687;SDS011;5392;42.688;23.298;2023-01-10T00:03:10;16.20;;;8.18;;
10687;SDS011;5392;42.688;23.298;2023-01-10T00:05:38;24.83;;;13.00;;
10687;SDS011;5392;42.688;23.298;2023-01-10T00:08:06;19.70;;;9.93;;
10687;SDS011;5392;42.688;23.298;2023-01-10T00:10:33;26.40;;;12.65;;
10687;SDS011;5392;42.688;23.298;2023-01-10T00:13:00;26.30;;;12.73;;
10687;SDS011;5392;42.688;23.298;2023-01-10T00:15:46;24.52;;;11.43;;
10687;SDS011;5392;42.688;23.298;2023-01-10T00:18:13;22.33;;;10.30;;
10687;SDS011;5392;42.688;23.298;2023-01-10T00:20:39;29.58;;;13.82;;
10687;SDS011;5392;42.688;23.298;2023-01-10T00:23:06;33.38;;;16.08;;
10687;SDS011;5392;42.688;23.298;2023-01-10T00:25:33;24.73;;;13.10;;
10687;SDS011;5392;42.688;23.298;2023-01-10T00:28:01;26.63;;;13.70;;
10687;SDS011;5392;42.688;23.298;2023-01-10T00:30:50;30.58;;;14.65;;
10687;SDS011;5392;42.688;23.298;2023-01-10T00:33:32;22.95;;;10.65;;
10687;SDS011;5392;42.688;23.298;2023-01-10T00:36:00;21.90;;;12.05;;
10687;SDS011;5392;42.688;23.298;2023-01-10T00:38:28;26.05;;;12.60;;
10687;SDS011;5392;42.688;23.298;2023-01-10T00:41:04;26.48;;;14.18;;
10687;SDS011;5392;42.688;23.298;2023-01-10T00:43:51;19.42;;;9.32;;
10687;SDS011;5392;42.688;23.298;2023-01-10T00:46:24;24.50;;;13.98;;
10687;SDS011;5392;42.688;23.298;2023-01-10T00:48:51;18.30;;;10.00;;
10687;SDS011;5392;42.688;23.298;2023-01-10T00:51:18;22.27;;;12.70;;
10687;SDS011;5392;42.688;23.298;2023-01-10T00:53:45;19.25;;;10.10;;
10687;SDS011;5392;42.688;23.298;2023-01-10T00:56:12;25.90;;;12.57;;
10687;SDS011;5392;42.688;23.298;2023-01-10T00:58:39;26.45;;;13.38;;
10687;SDS011;5392;42.688;23.298;2023-01-10T01:01:05;20.80;;;8.95;;
10687;SDS011;5392;42.688;23.298;2023-01-10T01:03:32;26.38;;;13.60;;
10687;SDS011;5392;42.688;23.298;2023-01-10T01:06:02;15.15;;;8.73;;
10687;SDS011;5392;42.688;23.298;2023-01-10T01:08:30;15.70;;;10.43;;
10687;SDS011;5392;42.688;23.298;2023-01-10T01:10:57;14.02;;;8.05;;
10687;SDS011;5392;42.688;23.298;2023-01-10T01:13:23;24.60;;;14.55;;
10687;SDS011;5392;42.688;23.298;2023-01-10T01:15:50;23.73;;;13.77;;
10687;SDS011;5392;42.688;23.298;2023-01-10T01:18:19;22.50;;;12.85;;
10687;SDS011;5392;42.688;23.298;2023-01-10T01:20:47;22.52;;;12.32;;
10687;SDS011;5392;42.688;23.298;2023-01-10T01:23:19;21.95;;;12.93;;
10687;SDS011;5392;42.688;23.298;2023-01-10T01:25:48;20.02;;;11.30;;
10687;SDS011;5392;42.688;23.298;2023-01-10T01:28:18;22.05;;;12.88;;
10687;SDS011;5392;42.688;23.298;2023-01-10T01:30:45;20.95;;;10.80;;
10687;SDS011;5392;42.688;23.298;2023-01-10T01:33:12;17.83;;;10.38;;
10687;SDS011;5392;42.688;23.298;2023-01-10T01:35:42;18.75;;;10.50;;
10687;SDS011;5392;42.688;23.298;2023-01-10T01:38:10;21.27;;;13.23;;
10687;SDS011;5392;42.688;23.298;2023-01-10T01:40:37;23.00;;;13.10;;
10687;SDS011;5392;42.688;23.298;2023-01-10T01:43:23;16.83;;;8.52;;
10687;SDS011;5392;42.688;23.298;2023-01-10T01:45:52;13.20;;;8.50;;
10687;SDS011;5392;42.688;23.298;2023-01-10T01:48:26;15.60;;;8.82;;
10687;SDS011;5392;42.688;23.298;2023-01-10T01:53:48;18.35;;;9.63;;
10687;SDS011;5392;42.688;23.298;2023-01-10T01:56:38;21.05;;;11.90;;
10687;SDS011;5392;42.688;23.298;2023-01-10T01:59:13;21.13;;;12.43;;
10687;SDS011;5392;42.688;23.298;2023-01-10T02:01:47;22.50;;;13.18;;
10687;SDS011;5392;42.688;23.298;2023-01-10T02:04:21;9.85;;;6.22;;
10687;SDS011;5392;42.688;23.298;2023-01-10T02:06:52;22.65;;;12.93;;
10687;SDS011;5392;42.688;23.298;2023-01-10T02:09:42;17.25;;;11.35;;
10687;SDS011;5392;42.688;23.298;2023-01-10T02:12:14;19.65;;;10.45;;
10687;SDS011;5392;42.688;23.298;2023-01-10T02:14:41;19.23;;;10.45;;
10687;SDS011;5392;42.688;23.298;2023-01-10T02:17:10;22.60;;;12.80;;
10687;SDS011;5392;42.688;23.298;2023-01-10T02:31:36;19.50;;;10.90;;
10687;SDS011;5392;42.688;23.298;2023-01-10T02:34:28;21.25;;;10.63;;
10687;SDS011;5392;42.688;23.298;2023-01-10T02:42:49;18.63;;;10.52;;
10687;SDS011;5392;42.688;23.298;2023-01-10T02:45:18;21.70;;;12.43;;
10687;SDS011;5392;42.688;23.298;2023-01-10T02:47:50;21.60;;;14.00;;
10687;SDS011;5392;42.688;23.298;2023-01-10T02:50:42;23.08;;;12.57;;
10687;SDS011;5392;42.688;23.298;2023-01-10T02:53:10;22.35;;;12.85;;
10687;SDS011;5392;42.688;23.298;2023-01-10T02:59:17;17.08;;;9.48;;
10687;SDS011;5392;42.688;23.298;2023-01-10T03:02:16;11.32;;;6.65;;
10687;SDS011;5392;42.688;23.298;2023-01-10T03:07:45;16.17;;;8.45;;
10687;SDS011;5392;42.688;23.298;2023-01-10T03:10:30;13.35;;;6.90;;
10687;SDS011;5392;42.688;23.298;2023-01-10T03:13:05;19.45;;;12.05;;
10687;SDS011;5392;42.688;23.298;2023-01-10T03:15:39;16.85;;;7.95;;
10687;SDS011;5392;42.688;23.298;2023-01-10T03:18:14;19.73;;;11.75;;
10687;SDS011;5392;42.688;23.298;2023-01-10T03:20:45;14.95;;;8.85;;
10687;SDS011;5392;42.688;23.298;2023-01-10T03:23:14;18.08;;;11.45;;
10687;SDS011;5392;42.688;23.298;2023-01-10T03:25:41;23.30;;;13.32;;
10687;SDS011;5392;42.688;23.298;2023-01-10T03:28:23;20.73;;;12.38;;
10687;SDS011;5392;42.688;23.298;2023-01-10T03:30:57;16.50;;;10.27;;
10687;SDS011;5392;42.688;23.298;2023-01-10T03:33:29;21.30;;;12.38;;
10687;SDS011;5392;42.688;23.298;2023-01-10T03:36:21;19.55;;;11.55;;
10687;SDS011;5392;42.688;23.298;2023-01-10T03:44:50;20.98;;;10.90;;
10687;SDS011;5392;42.688;23.298;2023-01-10T03:52:45;19.20;;;11.32;;
10687;SDS011;5392;42.688;23.298;2023-01-10T03:55:13;14.55;;;10.70;;
10687;SDS011;5392;42.688;23.298;2023-01-10T03:57:44;17.05;;;9.98;;
10687;SDS011;5392;42.688;23.298;2023-01-10T04:00:12;19.48;;;10.65;;
10687;SDS011;5392;42.688;23.298;2023-01-10T04:02:40;16.73;;;10.23;;
10687;SDS011;5392;42.688;23.298;2023-01-10T04:05:08;15.77;;;10.18;;
10687;SDS011;5392;42.688;23.298;2023-01-10T04:07:35;19.55;;;12.40;;
10687;SDS011;5392;42.688;23.298;2023-01-10T04:10:02;18.35;;;10.07;;
10687;SDS011;5392;42.688;23.298;2023-01-10T04:12:30;16.15;;;9.90;;
10687;SDS011;5392;42.688;23.298;2023-01-10T04:14:56;14.65;;;9.18;;
10687;SDS011;5392;42.688;23.298;2023-01-10T04:17:23;18.50;;;11.65;;
10687;SDS011;5392;42.688;23.298;2023-01-10T04:19:50;17.33;;;11.60;;
10687;SDS011;5392;42.688;23.298;2023-01-10T04:22:16;24.50;;;15.13;;
10687;SDS011;5392;42.688;23.298;2023-01-10T04:24:43;23.33;;;14.32;;
10687;SDS011;5392;42.688;23.298;2023-01-10T04:27:11;21.55;;;11.70;;
10687;SDS011;5392;42.688;23.298;2023-01-10T04:29:37;25.60;;;13.10;;
10687;SDS011;5392;42.688;23.298;2023-01-10T04:32:04;20.13;;;12.05;;
10687;SDS011;5392;42.688;23.298;2023-01-10T04:34:30;21.77;;;13.98;;
10687;SDS011;5392;42.688;23.298;2023-01-10T04:36:57;23.02;;;14.15;;
10687;SDS011;5392;42.688;23.298;2023-01-10T04:39:24;20.08;;;12.70;;
10687;SDS011;5392;42.688;23.298;2023-01-10T04:41:51;22.25;;;13.35;;
10687;SDS011;5392;42.688;23.298;2023-01-10T04:44:17;23.13;;;13.50;;
10687;SDS011;5392;42.688;23.298;2023-01-10T04:46:44;26.83;;;14.65;;
10687;SDS011;5392;42.688;23.298;2023-01-10T04:49:10;24.55;;;13.88;;
10687;SDS011;5392;42.688;23.298;2023-01-10T04:54:22;18.88;;;12.48;;
10687;SDS011;5392;42.688;23.298;2023-01-10T04:56:49;21.52;;;12.48;;
10687;SDS011;5392;42.688;23.298;2023-01-10T04:59:16;20.90;;;12.90;;
10687;SDS011;5392;42.688;23.298;2023-01-10T05:01:42;22.63;;;11.98;;
10687;SDS011;5392;42.688;23.298;2023-01-10T05:04:10;20.48;;;12.88;;
10687;SDS011;5392;42.688;23.298;2023-01-10T05:06:37;20.52;;;12.32;;
10687;SDS011;5392;42.688;23.298;2023-01-10T05:09:08;16.13;;;10.68;;
10687;SDS011;5392;42.688;23.298;2023-01-10T05:11:35;20.17;;;12.10;;
10687;SDS011;5392;42.688;23.298;2023-01-10T05:14:01;23.52;;;14.02;;
10687;SDS011;5392;42.688;23.298;2023-01-10T05:16:28;18.60;;;10.93;;
10687;SDS011;5392;42.688;23.298;2023-01-10T05:18:55;17.27;;;10.38;;
10687;SDS011;5392;42.688;23.298;2023-01-10T05:21:22;24.35;;;13.18;;
10687;SDS011;5392;42.688;23.298;2023-01-10T05:23:48;17.70;;;12.20;;
10687;SDS011;5392;42.688;23.298;2023-01-10T05:26:16;28.60;;;13.98;;
10687;SDS011;5392;42.688;23.298;2023-01-10T05:28:47;24.63;;;15.48;;
10687;SDS011;5392;42.688;23.298;2023-01-10T05:31:16;18.48;;;12.27;;
10687;SDS011;5392;42.688;23.298;2023-01-10T05:33:47;17.83;;;10.60;;
10687;SDS011;5392;42.688;23.298;2023-01-10T05:36:16;17.45;;;10.98;;
10687;SDS011;5392;42.688;23.298;2023-01-10T05:38:43;20.80;;;12.18;;
10687;SDS011;5392;42.688;23.298;2023-01-10T05:41:10;21.00;;;13.60;;
10687;SDS011;5392;42.688;23.298;2023-01-10T05:43:37;21.50;;;12.95;;
10687;SDS011;5392;42.688;23.298;2023-01-10T05:46:04;24.00;;;16.13;;
10687;SDS011;5392;42.688;23.298;2023-01-10T05:48:30;30.65;;;22.77;;
10687;SDS011;5392;42.688;23.298;2023-01-10T05:50:57;46.45;;;30.10;;
10687;SDS011;5392;42.688;23.298;2023-01-10T05:53:24;30.38;;;20.80;;
10687;SDS011;5392;42.688;23.298;2023-01-10T05:55:54;20.38;;;14.43;;
10687;SDS011;5392;42.688;23.298;2023-01-10T05:58:25;20.77;;;14.50;;
10687;SDS011;5392;42.688;23.298;2023-01-10T06:00:53;20.05;;;12.75;;
10687;SDS011;5392;42.688;23.298;2023-01-10T06:03:21;24.42;;;16.20;;
10687;SDS011;5392;42.688;23.298;2023-01-10T06:05:48;26.58;;;15.32;;
10687;SDS011;5392;42.688;23.298;2023-01-10T06:08:15;19.48;;;12.63;;
10687;SDS011;5392;42.688;23.298;2023-01-10T06:10:41;21.08;;;11.23;;
10687;SDS011;5392;42.688;23.298;2023-01-10T06:13:08;20.23;;;11.68;;
10687;SDS011;5392;42.688;23.298;2023-01-10T06:15:35;13.02;;;8.85;;
10687;SDS011;5392;42.688;23.298;2023-01-10T06:18:02;17.00;;;10.48;;
10687;SDS011;5392;42.688;23.298;2023-01-10T06:20:29;17.50;;;11.82;;
10687;SDS011;5392;42.688;23.298;2023-01-10T06:22:56;25.23;;;13.10;;
10687;SDS011;5392;42.688;23.298;2023-01-10T06:25:23;19.13;;;13.35;;
10687;SDS011;5392;42.688;23.298;2023-01-10T06:27:50;20.85;;;14.15;;
10687;SDS011;5392;42.688;23.298;2023-01-10T06:30:17;23.48;;;14.63;;
10687;SDS011;5392;42.688;23.298;2023-01-10T06:32:44;18.67;;;13.50;;
10687;SDS011;5392;42.688;23.298;2023-01-10T06:35:10;21.02;;;13.95;;
10687;SDS011;5392;42.688;23.298;2023-01-10T06:37:37;18.25;;;12.18;;
10687;SDS011;5392;42.688;23.298;2023-01-10T06:40:04;15.65;;;10.52;;
10687;SDS011;5392;42.688;23.298;2023-01-10T06:42:31;15.65;;;10.40;;
10687;SDS011;5392;42.688;23.298;2023-01-10T06:44:58;18.98;;;10.75;;
10687;SDS011;5392;42.688;23.298;2023-01-10T06:47:25;19.85;;;12.85;;
10687;SDS011;5392;42.688;23.298;2023-01-10T06:49:52;14.98;;;11.18;;
10687;SDS011;5392;42.688;23.298;2023-01-10T06:52:18;21.58;;;12.50;;
10687;SDS011;5392;42.688;23.298;2023-01-10T06:54:45;18.77;;;11.73;;
10687;SDS011;5392;42.688;23.298;2023-01-10T06:57:12;21.08;;;11.35;;
10687;SDS011;5392;42.688;23.298;2023-01-10T06:59:38;17.70;;;11.05;;
10687;SDS011;5392;42.688;23.298;2023-01-10T07:02:05;15.65;;;11.02;;
10687;SDS011;5392;42.688;23.298;2023-01-10T07:04:32;16.35;;;10.75;;
10687;SDS011;5392;42.688;23.298;2023-01-10T07:06:59;17.17;;;11.65;;
10687;SDS011;5392;42.688;23.298;2023-01-10T07:09:26;17.42;;;11.77;;
10687;SDS011;5392;42.688;23.298;2023-01-10T07:11:53;19.55;;;11.48;;
10687;SDS011;5392;42.688;23.298;2023-01-10T07:14:20;17.10;;;12.13;;
10687;SDS011;5392;42.688;23.298;2023-01-10T07:16:47;17.33;;;11.48;;
10687;SDS011;5392;42.688;23.298;2023-01-10T07:19:13;18.83;;;12.63;;
10687;SDS011;5392;42.688;23.298;2023-01-10T07:21:43;23.52;;;13.15;;
10687;SDS011;5392;42.688;23.298;2023-01-10T07:24:10;18.95;;;12.68;;
10687;SDS011;5392;42.688;23.298;2023-01-10T07:26:36;20.35;;;13.50;;
10687;SDS011;5392;42.688;23.298;2023-01-10T07:29:03;19.67;;;13.27;;
10687;SDS011;5392;42.688;23.298;2023-01-10T07:31:30;22.67;;;13.93;;
10687;SDS011;5392;42.688;23.298;2023-01-10T07:33:57;22.17;;;12.48;;
10687;SDS011;5392;42.688;23.298;2023-01-10T07:36:23;21.45;;;13.52;;
10687;SDS011;5392;42.688;23.298;2023-01-10T07:38:50;24.52;;;12.93;;
10687;SDS011;5392;42.688;23.298;2023-01-10T07:41:17;22.45;;;15.48;;
10687;SDS011;5392;42.688;23.298;2023-01-10T07:43:43;23.05;;;13.98;;
10687;SDS011;5392;42.688;23.298;2023-01-10T07:46:10;25.00;;;15.68;;
10687;SDS011;5392;42.688;23.298;2023-01-10T07:48:37;22.27;;;14.50;;
10687;SDS011;5392;42.688;23.298;2023-01-10T07:51:07;24.70;;;15.38;;
10687;SDS011;5392;42.688;23.298;2023-01-10T07:53:33;25.48;;;15.82;;
10687;SDS011;5392;42.688;23.298;2023-01-10T07:56:01;26.95;;;15.77;;
10687;SDS011;5392;42.688;23.298;2023-01-10T07:58:28;25.70;;;17.05;;
10687;SDS011;5392;42.688;23.298;2023-01-10T08:00:56;26.63;;;15.65;;
10687;SDS011;5392;42.688;23.298;2023-01-10T08:03:26;23.75;;;15.80;;
10687;SDS011;5392;42.688;23.298;2023-01-10T08:06:01;29.67;;;16.52;;
10687;SDS011;5392;42.688;23.298;2023-01-10T08:08:33;27.42;;;17.08;;
10687;SDS011;5392;42.688;23.298;2023-01-10T08:11:00;28.05;;;16.92;;
10687;SDS011;5392;42.688;23.298;2023-01-10T08:13:30;30.90;;;16.73;;
10687;SDS011;5392;42.688;23.298;2023-01-10T08:15:57;26.67;;;17.58;;
10687;SDS011;5392;42.688;23.298;2023-01-10T08:18:24;26.13;;;17.52;;
10687;SDS011;5392;42.688;23.298;2023-01-10T08:20:52;30.40;;;16.70;;
10687;SDS011;5392;42.688;23.298;2023-01-10T08:23:19;31.95;;;18.42;;
10687;SDS011;5392;42.688;23.298;2023-01-10T08:25:47;30.63;;;19.05;;
10687;SDS011;5392;42.688;23.298;2023-01-10T08:28:14;33.58;;;20.95;;
10687;SDS011;5392;42.688;23.298;2023-01-10T08:30:41;36.42;;;21.48;;
10687;SDS011;5392;42.688;23.298;2023-01-10T08:33:08;38.47;;;21.23;;
10687;SDS011;5392;42.688;23.298;2023-01-10T08:35:37;34.20;;;21.85;;
10687;SDS011;5392;42.688;23.298;2023-01-10T08:38:08;32.70;;;20.60;;
10687;SDS011;5392;42.688;23.298;2023-01-10T08:40:35;38.88;;;24.52;;
10687;SDS011;5392;42.688;23.298;2023-01-10T08:43:04;37.97;;;23.08;;
10687;SDS011;5392;42.688;23.298;2023-01-10T08:45:32;44.17;;;27.50;;
10687;SDS011;5392;42.688;23.298;2023-01-10T08:48:00;51.50;;;32.03;;
10687;SDS011;5392;42.688;23.298;2023-01-10T08:50:27;141.38;;;84.05;;
10687;SDS011;5392;42.688;23.298;2023-01-10T08:52:56;79.00;;;51.92;;
10687;SDS011;5392;42.688;23.298;2023-01-10T08:55:25;77.63;;;51.30;;
10687;SDS011;5392;42.688;23.298;2023-01-10T08:57:52;103.43;;;66.20;;
10687;SDS011;5392;42.688;23.298;2023-01-10T09:00:19;71.47;;;46.13;;
10687;SDS011;5392;42.688;23.298;2023-01-10T09:02:46;61.17;;;38.60;;
10687;SDS011;5392;42.688;23.298;2023-01-10T09:05:13;61.92;;;38.22;;
10687;SDS011;5392;42.688;23.298;2023-01-10T09:07:52;67.40;;;38.75;;
10687;SDS011;5392;42.688;23.298;2023-01-10T09:10:22;112.82;;;74.35;;
10687;SDS011;5392;42.688;23.298;2023-01-10T09:12:49;112.07;;;75.65;;
10687;SDS011;5392;42.688;23.298;2023-01-10T09:15:22;77.07;;;48.72;;
10687;SDS011;5392;42.688;23.298;2023-01-10T09:17:52;74.03;;;50.60;;
10687;SDS011;5392;42.688;23.298;2023-01-10T09:20:23;57.25;;;38.38;;
10687;SDS011;5392;42.688;23.298;2023-01-10T09:22:51;59.35;;;38.40;;
10687;SDS011;5392;42.688;23.298;2023-01-10T09:25:18;61.38;;;38.17;;
10687;SDS011;5392;42.688;23.298;2023-01-10T09:27:45;59.53;;;38.28;;
10687;SDS011;5392;42.688;23.298;2023-01-10T09:30:12;60.28;;;37.13;;
10687;SDS011;5392;42.688;23.298;2023-01-10T09:32:39;60.10;;;37.58;;
10687;SDS011;5392;42.688;23.298;2023-01-10T09:35:05;57.10;;;36.88;;
10687;SDS011;5392;42.688;23.298;2023-01-10T09:37:32;58.83;;;36.75;;
10687;SDS011;5392;42.688;23.298;2023-01-10T09:40:00;59.88;;;38.40;;
10687;SDS011;5392;42.688;23.298;2023-01-10T09:45:18;59.50;;;39.85;;
10687;SDS011;5392;42.688;23.298;2023-01-10T09:47:57;66.72;;;39.80;;
10687;SDS011;5392;42.688;23.298;2023-01-10T09:50:33;70.13;;;44.25;;
10687;SDS011;5392;42.688;23.298;2023-01-10T09:55:45;69.97;;;45.38;;
10687;SDS011;5392;42.688;23.298;2023-01-10T09:58:17;85.38;;;55.58;;
10687;SDS011;5392;42.688;23.298;2023-01-10T10:00:47;95.38;;;64.00;;
10687;SDS011;5392;42.688;23.298;2023-01-10T10:06:08;144.98;;;94.47;;
10687;SDS011;5392;42.688;23.298;2023-01-10T10:08:39;140.25;;;92.00;;
10687;SDS011;5392;42.688;23.298;2023-01-10T10:26:58;81.00;;;45.35;;
10687;SDS011;5392;42.688;23.298;2023-01-10T10:29:39;80.72;;;44.47;;
10687;SDS011;5392;42.688;23.298;2023-01-10T10:37:41;68.75;;;37.03;;
10687;SDS011;5392;42.688;23.298;2023-01-10T10:40:31;58.30;;;33.97;;
10687;SDS011;5392;42.688;23.298;2023-01-10T10:43:10;60.60;;;35.45;;
10687;SDS011;5392;42.688;23.298;2023-01-10T10:45:45;62.10;;;36.53;;
10687;SDS011;5392;42.688;23.298;2023-01-10T10:48:29;64.78;;;37.25;;
10687;SDS011;5392;42.688;23.298;2023-01-10T10:53:28;67.32;;;40.03;;
10687;SDS011;5392;42.688;23.298;2023-01-10T10:55:56;77.38;;;44.10;;
10687;SDS011;5392;42.688;23.298;2023-01-10T10:58:23;79.40;;;44.05;;
10687;SDS011;5392;42.688;23.298;2023-01-10T11:00:51;99.93;;;59.70;;
10687;SDS011;5392;42.688;23.298;2023-01-10T11:03:26;82.05;;;46.67;;
10687;SDS011;5392;42.688;23.298;2023-01-10T11:05:54;65.25;;;40.25;;
10687;SDS011;5392;42.688;23.298;2023-01-10T11:08:21;76.25;;;43.10;;
10687;SDS011;5392;42.688;23.298;2023-01-10T11:10:53;63.55;;;37.75;;
10687;SDS011;5392;42.688;23.298;2023-01-10T11:16:05;60.20;;;34.83;;
10687;SDS011;5392;42.688;23.298;2023-01-10T11:18:33;56.88;;;32.25;;
10687;SDS011;5392;42.688;23.298;2023-01-10T11:21:13;54.83;;;32.67;;
10687;SDS011;5392;42.688;23.298;2023-01-10T11:23:49;54.22;;;32.03;;
10687;SDS011;5392;42.688;23.298;2023-01-10T11:26:52;55.85;;;32.58;;
10687;SDS011;5392;42.688;23.298;2023-01-10T11:31:52;74.32;;;46.17;;
10687;SDS011;5392;42.688;23.298;2023-01-10T11:34:22;86.78;;;54.17;;
10687;SDS011;5392;42.688;23.298;2023-01-10T11:39:22;71.05;;;45.63;;
10687;SDS011;5392;42.688;23.298;2023-01-10T11:41:50;63.65;;;39.42;;
10687;SDS011;5392;42.688;23.298;2023-01-10T11:44:25;59.88;;;38.95;;
10687;SDS011;5392;42.688;23.298;2023-01-10T11:47:01;57.72;;;37.63;;
10687;SDS011;5392;42.688;23.298;2023-01-10T11:49:35;57.42;;;33.97;;
10687;SDS011;5392;42.688;23.298;2023-01-10T11:54:43;44.38;;;27.90;;
10687;SDS011;5392;42.688;23.298;2023-01-10T11:57:22;42.10;;;25.33;;
10687;SDS011;5392;42.688;23.298;2023-01-10T11:59:52;44.58;;;26.40;;
10687;SDS011;5392;42.688;23.298;2023-01-10T12:02:40;57.83;;;27.70;;
10687;SDS011;5392;42.688;23.298;2023-01-10T12:05:09;45.97;;;26.70;;
10687;SDS011;5392;42.688;23.298;2023-01-10T12:08:46;42.55;;;24.85;;
10687;SDS011;5392;42.688;23.298;2023-01-10T12:10:56;41.35;;;26.92;;
10687;SDS011;5392;42.688;23.298;2023-01-10T12:13:28;42.55;;;26.45;;
10687;SDS011;5392;42.688;23.298;2023-01-10T12:18:41;46.85;;;32.28;;
10687;SDS011;5392;42.688;23.298;2023-01-10T12:21:09;44.60;;;28.40;;
10687;SDS011;5392;42.688;23.298;2023-01-10T12:23:39;42.25;;;26.23;;
10687;SDS011;5392;42.688;23.298;2023-01-10T12:26:10;44.00;;;26.75;;
10687;SDS011;5392;42.688;23.298;2023-01-10T12:28:43;45.30;;;28.45;;
10687;SDS011;5392;42.688;23.298;2023-01-10T12:31:15;49.65;;;28.95;;
10687;SDS011;5392;42.688;23.298;2023-01-10T12:33:43;43.35;;;29.15;;
10687;SDS011;5392;42.688;23.298;2023-01-10T12:38:59;45.90;;;29.33;;
10687;SDS011;5392;42.688;23.298;2023-01-10T12:44:41;50.28;;;32.05;;
10687;SDS011;5392;42.688;23.298;2023-01-10T12:52:41;55.20;;;33.78;;
10687;SDS011;5392;42.688;23.298;2023-01-10T12:55:19;58.85;;;39.83;;
10687;SDS011;5392;42.688;23.298;2023-01-10T12:57:49;50.65;;;32.92;;
10687;SDS011;5392;42.688;23.298;2023-01-10T13:00:21;49.08;;;32.25;;
10687;SDS011;5392;42.688;23.298;2023-01-10T13:03:12;45.30;;;28.88;;
10687;SDS011;5392;42.688;23.298;2023-01-10T13:05:44;45.75;;;28.95;;
10687;SDS011;5392;42.688;23.298;2023-01-10T13:08:16;50.97;;;31.25;;
10687;SDS011;5392;42.688;23.298;2023-01-10T13:10:48;44.60;;;30.13;;
10687;SDS011;5392;42.688;23.298;2023-01-10T13:13:21;45.22;;;30.65;;
10687;SDS011;5392;42.688;23.298;2023-01-10T13:21:37;41.13;;;26.65;;
10687;SDS011;5392;42.688;23.298;2023-01-10T13:26:57;32.30;;;21.88;;
10687;SDS011;5392;42.688;23.298;2023-01-10T13:29:26;29.75;;;20.48;;
10687;SDS011;5392;42.688;23.298;2023-01-10T13:31:58;33.78;;;21.25;;
10687;SDS011;5392;42.688;23.298;2023-01-10T13:34:33;31.25;;;21.15;;
10687;SDS011;5392;42.688;23.298;2023-01-10T13:37:11;33.22;;;21.20;;
10687;SDS011;5392;42.688;23.298;2023-01-10T13:39:44;31.30;;;23.02;;
10687;SDS011;5392;42.688;23.298;2023-01-10T13:42:34;39.20;;;24.00;;
10687;SDS011;5392;42.688;23.298;2023-01-10T14:08:54;12.63;;;11.23;;
10687;SDS011;5392;42.688;23.298;2023-01-10T14:11:28;9.32;;;8.43;;
10687;SDS011;5392;42.688;23.298;2023-01-10T14:14:01;4.75;;;4.45;;
10687;SDS011;5392;42.688;23.298;2023-01-10T14:16:32;7.32;;;6.55;;
10687;SDS011;5392;42.688;23.298;2023-01-10T14:19:02;7.38;;;5.78;;
10687;SDS011;5392;42.688;23.298;2023-01-10T14:21:36;13.10;;;8.13;;
10687;SDS011;5392;42.688;23.298;2023-01-10T14:24:22;10.10;;;8.60;;
10687;SDS011;5392;42.688;23.298;2023-01-10T14:26:57;14.63;;;10.52;;
10687;SDS011;5392;42.688;23.298;2023-01-10T14:29:27;14.60;;;11.45;;
10687;SDS011;5392;42.688;23.298;2023-01-10T14:31:57;18.23;;;12.68;;
10687;SDS011;5392;42.688;23.298;2023-01-10T14:34:27;20.27;;;16.02;;
10687;SDS011;5392;42.688;23.298;2023-01-10T14:37:00;22.52;;;17.48;;
10687;SDS011;5392;42.688;23.298;2023-01-10T14:39:32;19.38;;;15.43;;
10687;SDS011;5392;42.688;23.298;2023-01-10T14:42:00;21.98;;;17.48;;
10687;SDS011;5392;42.688;23.298;2023-01-10T14:44:31;23.40;;;18.73;;
10687;SDS011;5392;42.688;23.298;2023-01-10T14:47:20;25.88;;;19.38;;
10687;SDS011;5392;42.688;23.298;2023-01-10T14:49:53;23.38;;;18.23;;
10687;SDS011;5392;42.688;23.298;2023-01-10T14:52:29;24.73;;;17.90;;
10687;SDS011;5392;42.688;23.298;2023-01-10T14:57:23;10.38;;;7.35;;
10687;SDS011;5392;42.688;23.298;2023-01-10T15:02:32;4.35;;;3.97;;
10687;SDS011;5392;42.688;23.298;2023-01-10T15:07:32;6.18;;;2.38;;
10687;SDS011;5392;42.688;23.298;2023-01-10T15:09:59;3.70;;;2.40;;
10687;SDS011;5392;42.688;23.298;2023-01-10T15:12:29;3.03;;;1.13;;
10687;SDS011;5392;42.688;23.298;2023-01-10T15:15:02;3.03;;;1.67;;
10687;SDS011;5392;42.688;23.298;2023-01-10T15:17:32;1.25;;;1.15;;
10687;SDS011;5392;42.688;23.298;2023-01-10T15:20:01;4.45;;;2.40;;
10687;SDS011;5392;42.688;23.298;2023-01-10T15:22:33;4.57;;;1.60;;
10687;SDS011;5392;42.688;23.298;2023-01-10T15:25:02;5.95;;;3.50;;
10687;SDS011;5392;42.688;23.298;2023-01-10T15:27:53;6.80;;;5.25;;
10687;SDS011;5392;42.688;23.298;2023-01-10T15:30:24;10.15;;;6.70;;
10687;SDS011;5392;42.688;23.298;2023-01-10T15:32:53;11.77;;;7.53;;
10687;SDS011;5392;42.688;23.298;2023-01-10T15:35:24;12.73;;;7.45;;
10687;SDS011;5392;42.688;23.298;2023-01-10T15:38:03;10.18;;;6.30;;
10687;SDS011;5392;42.688;23.298;2023-01-10T15:40:34;7.00;;;5.20;;
10687;SDS011;5392;42.688;23.298;2023-01-10T15:45:48;8.05;;;4.13;;
10687;SDS011;5392;42.688;23.298;2023-01-10T15:48:33;5.32;;;3.08;;
10687;SDS011;5392;42.688;23.298;2023-01-10T15:51:21;2.78;;;2.17;;
10687;SDS011;5392;42.688;23.298;2023-01-10T15:56:30;1.50;;;1.40;;
10687;SDS011;5392;42.688;23.298;2023-01-10T15:59:17;1.70;;;0.90;;
10687;SDS011;5392;42.688;23.298;2023-01-10T16:01:55;3.20;;;1.58;;
10687;SDS011;5392;42.688;23.298;2023-01-10T16:04:26;0.98;;;0.98;;
10687;SDS011;5392;42.688;23.298;2023-01-10T16:07:02;1.42;;;1.20;;
10687;SDS011;5392;42.688;23.298;2023-01-10T16:09:33;3.70;;;3.30;;
10687;SDS011;5392;42.688;23.298;2023-01-10T16:12:01;4.38;;;3.50;;
10687;SDS011;5392;42.688;23.298;2023-01-10T16:14:46;3.05;;;2.85;;
10687;SDS011;5392;42.688;23.298;2023-01-10T16:17:13;3.33;;;3.03;;
10687;SDS011;5392;42.688;23.298;2023-01-10T16:19:40;3.72;;;3.42;;
10687;SDS011;5392;42.688;23.298;2023-01-10T16:22:06;2.78;;;2.58;;
10687;SDS011;5392;42.688;23.298;2023-01-10T16:24:33;4.20;;;3.80;;
10687;SDS011;5392;42.688;23.298;2023-01-10T16:27:02;5.78;;;4.30;;
10687;SDS011;5392;42.688;23.298;2023-01-10T16:29:32;6.78;;;4.57;;
10687;SDS011;5392;42.688;23.298;2023-01-10T16:31:58;6.43;;;4.95;;
10687;SDS011;5392;42.688;23.298;2023-01-10T16:34:25;4.95;;;3.92;;
10687;SDS011;5392;42.688;23.298;2023-01-10T16:36:52;8.70;;;4.90;;
10687;SDS011;5392;42.688;23.298;2023-01-10T16:39:20;11.95;;;5.85;;
10687;SDS011;5392;42.688;23.298;2023-01-10T16:41:48;10.95;;;5.53;;
10687;SDS011;5392;42.688;23.298;2023-01-10T16:44:34;8.02;;;5.90;;
10687;SDS011;5392;42.688;23.298;2023-01-10T16:47:01;7.97;;;5.88;;
10687;SDS011;5392;42.688;23.298;2023-01-10T16:49:32;5.03;;;2.90;;
10687;SDS011;5392;42.688;23.298;2023-01-10T16:51:59;5.95;;;2.83;;
10687;SDS011;5392;42.688;23.298;2023-01-10T16:54:26;4.93;;;2.22;;
10687;SDS011;5392;42.688;23.298;2023-01-10T16:56:53;0.90;;;0.90;;
10687;SDS011;5392;42.688;23.298;2023-01-10T16:59:21;2.28;;;1.48;;
10687;SDS011;5392;42.688;23.298;2023-01-10T17:01:48;2.10;;;1.08;;
10687;SDS011;5392;42.688;23.298;2023-01-10T17:04:22;0.40;;;0.40;;
10687;SDS011;5392;42.688;23.298;2023-01-10T17:06:53;2.55;;;0.65;;
10687;SDS011;5392;42.688;23.298;2023-01-10T17:09:22;0.70;;;0.45;;